Canutillo, Texas
Current Conditions -  °F | °C
As of 1:58 PM on Thursday 27 Nov 2014 (Local Time) from KBIF Reporting Station
Clear Clear  
Wind Chill: 64°   Ceiling: Unl
Heat Index: 64°   Visibility: 7mi
Dew Point: 20°   Wind: 2mph
Humidity: 18%   Direction: 100°E
Pressure: 30.32"   Gusts: NA
Location:  31.91°N, 106.6°W
Report Text: KBIF 272058Z AUTO 10002KT 7SM CLR 18/M07 A3032 RMK AO2 LTG DSNT S SLP243 T01771068 57029 $
Loading
Personal Weather Stations






























Interactive Weather Map New forecast layout! Learn more

10-Day Weather Forecast

Advertisements
Track Severe Weather on mobile